sensor_id;sensor_type;location;lat;lon;timestamp;P1;durP1;ratioP1;P2;durP2;ratioP2
57730;SDS011;43570;47.476;19.040;2023-03-29T00:00:59;3.47;;;1.80;;
57730;SDS011;43570;47.476;19.040;2023-03-29T00:03:25;3.15;;;1.85;;
57730;SDS011;43570;47.476;19.040;2023-03-29T00:05:51;4.47;;;2.00;;
57730;SDS011;43570;47.476;19.040;2023-03-29T00:08:22;3.37;;;1.58;;
57730;SDS011;43570;47.476;19.040;2023-03-29T00:10:47;4.95;;;1.95;;
57730;SDS011;43570;47.476;19.040;2023-03-29T00:13:13;3.60;;;1.90;;
57730;SDS011;43570;47.476;19.040;2023-03-29T00:15:39;3.97;;;2.15;;
57730;SDS011;43570;47.476;19.040;2023-03-29T00:18:05;3.85;;;1.90;;
57730;SDS011;43570;47.476;19.040;2023-03-29T00:20:31;3.00;;;2.30;;
57730;SDS011;43570;47.476;19.040;2023-03-29T00:22:56;4.45;;;2.35;;
57730;SDS011;43570;47.476;19.040;2023-03-29T00:25:22;3.75;;;2.10;;
57730;SDS011;43570;47.476;19.040;2023-03-29T00:27:47;5.25;;;2.28;;
57730;SDS011;43570;47.476;19.040;2023-03-29T00:30:13;3.92;;;2.45;;
57730;SDS011;43570;47.476;19.040;2023-03-29T00:32:39;3.05;;;1.85;;
57730;SDS011;43570;47.476;19.040;2023-03-29T00:35:05;4.60;;;2.35;;
57730;SDS011;43570;47.476;19.040;2023-03-29T00:37:31;3.87;;;2.00;;
57730;SDS011;43570;47.476;19.040;2023-03-29T00:39:56;3.92;;;2.28;;
57730;SDS011;43570;47.476;19.040;2023-03-29T00:42:22;4.30;;;2.53;;
57730;SDS011;43570;47.476;19.040;2023-03-29T00:45:05;3.80;;;2.40;;
57730;SDS011;43570;47.476;19.040;2023-03-29T00:47:35;4.25;;;2.33;;
57730;SDS011;43570;47.476;19.040;2023-03-29T00:52:39;5.00;;;2.40;;
57730;SDS011;43570;47.476;19.040;2023-03-29T00:55:09;5.22;;;2.50;;
57730;SDS011;43570;47.476;19.040;2023-03-29T00:57:37;5.45;;;2.70;;
57730;SDS011;43570;47.476;19.040;2023-03-29T01:00:04;5.50;;;2.45;;
57730;SDS011;43570;47.476;19.040;2023-03-29T01:02:34;4.28;;;2.35;;
57730;SDS011;43570;47.476;19.040;2023-03-29T01:05:11;5.15;;;2.47;;
57730;SDS011;43570;47.476;19.040;2023-03-29T01:07:50;4.57;;;2.20;;
57730;SDS011;43570;47.476;19.040;2023-03-29T01:13:02;5.53;;;2.70;;
57730;SDS011;43570;47.476;19.040;2023-03-29T01:15:33;4.68;;;2.72;;
57730;SDS011;43570;47.476;19.040;2023-03-29T01:17:59;5.72;;;2.67;;
57730;SDS011;43570;47.476;19.040;2023-03-29T01:29:11;4.75;;;2.17;;
57730;SDS011;43570;47.476;19.040;2023-03-29T01:31:44;5.35;;;2.40;;
57730;SDS011;43570;47.476;19.040;2023-03-29T01:34:17;5.55;;;3.00;;
57730;SDS011;43570;47.476;19.040;2023-03-29T01:39:33;5.18;;;2.83;;
57730;SDS011;43570;47.476;19.040;2023-03-29T01:44:54;5.15;;;2.97;;
57730;SDS011;43570;47.476;19.040;2023-03-29T01:52:44;4.55;;;2.62;;
57730;SDS011;43570;47.476;19.040;2023-03-29T01:55:32;4.22;;;2.85;;
57730;SDS011;43570;47.476;19.040;2023-03-29T01:58:00;4.82;;;2.60;;
57730;SDS011;43570;47.476;19.040;2023-03-29T02:00:27;5.62;;;2.70;;
57730;SDS011;43570;47.476;19.040;2023-03-29T02:02:55;6.05;;;2.78;;
57730;SDS011;43570;47.476;19.040;2023-03-29T02:05:24;4.68;;;2.65;;
57730;SDS011;43570;47.476;19.040;2023-03-29T02:07:51;5.07;;;2.47;;
57730;SDS011;43570;47.476;19.040;2023-03-29T02:10:17;6.47;;;2.90;;
57730;SDS011;43570;47.476;19.040;2023-03-29T02:12:42;5.72;;;2.72;;
57730;SDS011;43570;47.476;19.040;2023-03-29T02:15:13;5.40;;;2.80;;
57730;SDS011;43570;47.476;19.040;2023-03-29T02:17:39;5.53;;;2.60;;
57730;SDS011;43570;47.476;19.040;2023-03-29T02:25:34;7.45;;;2.72;;
57730;SDS011;43570;47.476;19.040;2023-03-29T02:28:01;5.55;;;2.92;;
57730;SDS011;43570;47.476;19.040;2023-03-29T02:30:29;3.97;;;2.50;;
57730;SDS011;43570;47.476;19.040;2023-03-29T02:33:03;4.53;;;2.67;;
57730;SDS011;43570;47.476;19.040;2023-03-29T02:35:34;10.50;;;3.20;;
57730;SDS011;43570;47.476;19.040;2023-03-29T02:38:05;10.98;;;3.22;;
57730;SDS011;43570;47.476;19.040;2023-03-29T02:40:32;5.25;;;2.87;;
57730;SDS011;43570;47.476;19.040;2023-03-29T02:42:59;4.95;;;2.72;;
57730;SDS011;43570;47.476;19.040;2023-03-29T02:45:26;6.93;;;2.97;;
57730;SDS011;43570;47.476;19.040;2023-03-29T02:47:53;6.47;;;3.08;;
57730;SDS011;43570;47.476;19.040;2023-03-29T02:50:20;4.93;;;2.60;;
57730;SDS011;43570;47.476;19.040;2023-03-29T02:52:53;6.90;;;3.37;;
57730;SDS011;43570;47.476;19.040;2023-03-29T02:55:23;5.93;;;3.05;;
57730;SDS011;43570;47.476;19.040;2023-03-29T02:57:50;7.47;;;3.60;;
57730;SDS011;43570;47.476;19.040;2023-03-29T03:00:16;6.72;;;3.40;;
57730;SDS011;43570;47.476;19.040;2023-03-29T03:02:43;6.78;;;3.53;;
57730;SDS011;43570;47.476;19.040;2023-03-29T03:05:09;6.57;;;3.47;;
57730;SDS011;43570;47.476;19.040;2023-03-29T03:07:35;5.57;;;3.00;;
57730;SDS011;43570;47.476;19.040;2023-03-29T03:10:01;7.50;;;3.33;;
57730;SDS011;43570;47.476;19.040;2023-03-29T03:12:28;6.40;;;2.87;;
57730;SDS011;43570;47.476;19.040;2023-03-29T03:14:53;6.62;;;3.30;;
57730;SDS011;43570;47.476;19.040;2023-03-29T03:17:18;6.35;;;3.15;;
57730;SDS011;43570;47.476;19.040;2023-03-29T03:19:44;7.55;;;3.20;;
57730;SDS011;43570;47.476;19.040;2023-03-29T03:22:09;5.85;;;3.10;;
57730;SDS011;43570;47.476;19.040;2023-03-29T03:24:35;6.90;;;3.45;;
57730;SDS011;43570;47.476;19.040;2023-03-29T03:27:01;6.10;;;3.83;;
57730;SDS011;43570;47.476;19.040;2023-03-29T03:29:26;5.97;;;3.00;;
57730;SDS011;43570;47.476;19.040;2023-03-29T03:31:52;5.65;;;3.40;;
57730;SDS011;43570;47.476;19.040;2023-03-29T03:34:18;7.82;;;3.50;;
57730;SDS011;43570;47.476;19.040;2023-03-29T03:36:44;7.10;;;3.65;;
57730;SDS011;43570;47.476;19.040;2023-03-29T03:39:11;6.00;;;3.20;;
57730;SDS011;43570;47.476;19.040;2023-03-29T03:41:37;7.68;;;3.35;;
57730;SDS011;43570;47.476;19.040;2023-03-29T03:44:03;6.57;;;3.40;;
57730;SDS011;43570;47.476;19.040;2023-03-29T03:46:28;8.02;;;3.60;;
57730;SDS011;43570;47.476;19.040;2023-03-29T03:48:54;7.45;;;3.50;;
57730;SDS011;43570;47.476;19.040;2023-03-29T03:51:20;5.53;;;3.30;;
57730;SDS011;43570;47.476;19.040;2023-03-29T03:53:46;6.12;;;3.40;;
57730;SDS011;43570;47.476;19.040;2023-03-29T03:56:11;8.00;;;3.25;;
57730;SDS011;43570;47.476;19.040;2023-03-29T03:58:37;6.43;;;3.55;;
57730;SDS011;43570;47.476;19.040;2023-03-29T04:01:03;6.90;;;3.58;;
57730;SDS011;43570;47.476;19.040;2023-03-29T04:03:29;8.35;;;3.97;;
57730;SDS011;43570;47.476;19.040;2023-03-29T04:05:58;8.13;;;4.40;;
57730;SDS011;43570;47.476;19.040;2023-03-29T04:08:23;8.52;;;3.95;;
57730;SDS011;43570;47.476;19.040;2023-03-29T04:10:50;9.45;;;4.70;;
57730;SDS011;43570;47.476;19.040;2023-03-29T04:13:16;11.45;;;5.07;;
57730;SDS011;43570;47.476;19.040;2023-03-29T04:15:42;9.70;;;4.85;;
57730;SDS011;43570;47.476;19.040;2023-03-29T04:18:10;10.27;;;5.70;;
57730;SDS011;43570;47.476;19.040;2023-03-29T04:20:36;10.45;;;5.85;;
57730;SDS011;43570;47.476;19.040;2023-03-29T04:23:02;14.02;;;12.55;;
57730;SDS011;43570;47.476;19.040;2023-03-29T04:25:27;14.77;;;7.37;;
57730;SDS011;43570;47.476;19.040;2023-03-29T04:27:53;13.55;;;7.70;;
57730;SDS011;43570;47.476;19.040;2023-03-29T04:30:18;13.43;;;7.10;;
57730;SDS011;43570;47.476;19.040;2023-03-29T04:32:44;14.90;;;7.57;;
57730;SDS011;43570;47.476;19.040;2023-03-29T04:35:10;20.42;;;11.05;;
57730;SDS011;43570;47.476;19.040;2023-03-29T04:37:35;15.68;;;8.48;;
57730;SDS011;43570;47.476;19.040;2023-03-29T04:40:04;15.43;;;7.28;;
57730;SDS011;43570;47.476;19.040;2023-03-29T04:42:33;15.88;;;8.10;;
57730;SDS011;43570;47.476;19.040;2023-03-29T04:44:58;13.43;;;7.40;;
57730;SDS011;43570;47.476;19.040;2023-03-29T04:47:25;13.15;;;7.22;;
57730;SDS011;43570;47.476;19.040;2023-03-29T04:49:53;13.13;;;6.57;;
57730;SDS011;43570;47.476;19.040;2023-03-29T04:52:19;12.57;;;7.47;;
57730;SDS011;43570;47.476;19.040;2023-03-29T04:54:45;12.20;;;6.55;;
57730;SDS011;43570;47.476;19.040;2023-03-29T04:57:10;13.23;;;6.90;;
57730;SDS011;43570;47.476;19.040;2023-03-29T04:59:36;14.38;;;7.32;;
57730;SDS011;43570;47.476;19.040;2023-03-29T05:02:01;12.23;;;7.35;;
57730;SDS011;43570;47.476;19.040;2023-03-29T05:04:28;12.55;;;7.25;;
57730;SDS011;43570;47.476;19.040;2023-03-29T05:06:55;14.35;;;8.05;;
57730;SDS011;43570;47.476;19.040;2023-03-29T05:09:21;14.02;;;7.07;;
57730;SDS011;43570;47.476;19.040;2023-03-29T05:11:48;12.18;;;7.18;;
57730;SDS011;43570;47.476;19.040;2023-03-29T05:14:14;14.75;;;7.15;;
57730;SDS011;43570;47.476;19.040;2023-03-29T05:16:40;13.50;;;6.25;;
57730;SDS011;43570;47.476;19.040;2023-03-29T05:19:06;11.65;;;6.32;;
57730;SDS011;43570;47.476;19.040;2023-03-29T05:21:33;13.80;;;6.75;;
57730;SDS011;43570;47.476;19.040;2023-03-29T05:23:59;10.50;;;6.37;;
57730;SDS011;43570;47.476;19.040;2023-03-29T05:26:24;12.00;;;6.30;;
57730;SDS011;43570;47.476;19.040;2023-03-29T05:28:50;11.38;;;5.40;;
57730;SDS011;43570;47.476;19.040;2023-03-29T05:31:16;9.15;;;5.57;;
57730;SDS011;43570;47.476;19.040;2023-03-29T05:33:42;10.13;;;5.68;;
57730;SDS011;43570;47.476;19.040;2023-03-29T05:36:09;10.88;;;5.53;;
57730;SDS011;43570;47.476;19.040;2023-03-29T05:38:37;13.07;;;6.72;;
57730;SDS011;43570;47.476;19.040;2023-03-29T05:41:03;12.30;;;5.95;;
57730;SDS011;43570;47.476;19.040;2023-03-29T05:43:30;12.48;;;5.72;;
57730;SDS011;43570;47.476;19.040;2023-03-29T05:45:55;12.02;;;5.30;;
57730;SDS011;43570;47.476;19.040;2023-03-29T05:48:21;9.82;;;5.85;;
57730;SDS011;43570;47.476;19.040;2023-03-29T05:50:51;11.40;;;5.68;;
57730;SDS011;43570;47.476;19.040;2023-03-29T05:53:17;10.18;;;5.43;;
57730;SDS011;43570;47.476;19.040;2023-03-29T05:55:44;10.48;;;5.03;;
57730;SDS011;43570;47.476;19.040;2023-03-29T05:58:10;9.25;;;4.40;;
57730;SDS011;43570;47.476;19.040;2023-03-29T06:00:37;7.47;;;4.22;;
57730;SDS011;43570;47.476;19.040;2023-03-29T06:03:03;8.25;;;4.37;;
57730;SDS011;43570;47.476;19.040;2023-03-29T06:05:29;7.90;;;4.07;;
57730;SDS011;43570;47.476;19.040;2023-03-29T06:07:54;7.25;;;4.18;;
57730;SDS011;43570;47.476;19.040;2023-03-29T06:10:21;6.62;;;3.35;;
57730;SDS011;43570;47.476;19.040;2023-03-29T06:12:47;9.00;;;4.20;;
57730;SDS011;43570;47.476;19.040;2023-03-29T06:15:13;7.57;;;4.28;;
57730;SDS011;43570;47.476;19.040;2023-03-29T06:17:40;8.35;;;3.70;;
57730;SDS011;43570;47.476;19.040;2023-03-29T06:20:06;6.82;;;4.15;;
